sensor_id;sensor_type;location;lat;lon;timestamp;temperature;humidity
6439;DHT22;3252;52.540;13.290;2024-02-21T00:01:04;19.50;95.30
6439;DHT22;3252;52.540;13.290;2024-02-21T00:03:08;19.50;95.30
6439;DHT22;3252;52.540;13.290;2024-02-21T00:05:10;19.50;95.30
6439;DHT22;3252;52.540;13.290;2024-02-21T00:07:12;19.50;95.30
6439;DHT22;3252;52.540;13.290;2024-02-21T00:09:14;19.50;95.30
6439;DHT22;3252;52.540;13.290;2024-02-21T00:11:16;19.50;95.40
6439;DHT22;3252;52.540;13.290;2024-02-21T00:13:18;19.50;95.50
6439;DHT22;3252;52.540;13.290;2024-02-21T00:15:20;19.50;95.60
6439;DHT22;3252;52.540;13.290;2024-02-21T00:17:23;19.50;95.60
6439;DHT22;3252;52.540;13.290;2024-02-21T00:19:28;19.50;95.60
6439;DHT22;3252;52.540;13.290;2024-02-21T00:21:29;19.50;95.60
6439;DHT22;3252;52.540;13.290;2024-02-21T00:23:31;19.50;95.60
6439;DHT22;3252;52.540;13.290;2024-02-21T00:25:33;19.50;95.60
6439;DHT22;3252;52.540;13.290;2024-02-21T00:27:35;19.50;95.70
6439;DHT22;3252;52.540;13.290;2024-02-21T00:29:38;19.50;95.60
6439;DHT22;3252;52.540;13.290;2024-02-21T00:31:40;19.50;95.50
6439;DHT22;3252;52.540;13.290;2024-02-21T00:33:41;19.50;95.50
6439;DHT22;3252;52.540;13.290;2024-02-21T00:35:44;19.50;95.50
6439;DHT22;3252;52.540;13.290;2024-02-21T00:37:46;19.50;95.60
6439;DHT22;3252;52.540;13.290;2024-02-21T00:39:48;19.50;95.60
6439;DHT22;3252;52.540;13.290;2024-02-21T00:41:50;19.50;95.70
6439;DHT22;3252;52.540;13.290;2024-02-21T00:43:54;19.50;95.60
6439;DHT22;3252;52.540;13.290;2024-02-21T00:45:56;19.40;95.50
6439;DHT22;3252;52.540;13.290;2024-02-21T00:47:57;19.40;95.50
6439;DHT22;3252;52.540;13.290;2024-02-21T00:49:59;19.40;95.50
6439;DHT22;3252;52.540;13.290;2024-02-21T00:52:03;19.40;95.50
6439;DHT22;3252;52.540;13.290;2024-02-21T00:54:05;19.40;95.60
6439;DHT22;3252;52.540;13.290;2024-02-21T00:56:07;19.40;95.60
6439;DHT22;3252;52.540;13.290;2024-02-21T00:58:09;19.40;95.90
6439;DHT22;3252;52.540;13.290;2024-02-21T01:00:12;19.40;95.60
6439;DHT22;3252;52.540;13.290;2024-02-21T01:02:14;19.40;95.70
6439;DHT22;3252;52.540;13.290;2024-02-21T01:04:16;19.40;95.60
6439;DHT22;3252;52.540;13.290;2024-02-21T01:06:19;19.40;95.60
6439;DHT22;3252;52.540;13.290;2024-02-21T01:08:22;19.40;95.70
6439;DHT22;3252;52.540;13.290;2024-02-21T01:10:24;19.40;95.70
6439;DHT22;3252;52.540;13.290;2024-02-21T01:12:26;19.40;95.70
6439;DHT22;3252;52.540;13.290;2024-02-21T01:14:28;19.40;95.70
6439;DHT22;3252;52.540;13.290;2024-02-21T01:16:30;19.40;95.70
6439;DHT22;3252;52.540;13.290;2024-02-21T01:18:33;19.40;95.70
6439;DHT22;3252;52.540;13.290;2024-02-21T01:20:34;19.40;95.70
6439;DHT22;3252;52.540;13.290;2024-02-21T01:22:36;19.40;95.70
6439;DHT22;3252;52.540;13.290;2024-02-21T01:24:40;19.40;95.70
6439;DHT22;3252;52.540;13.290;2024-02-21T01:26:42;19.40;95.70
6439;DHT22;3252;52.540;13.290;2024-02-21T01:28:43;19.40;95.70
6439;DHT22;3252;52.540;13.290;2024-02-21T01:30:45;19.40;95.70
6439;DHT22;3252;52.540;13.290;2024-02-21T01:32:47;19.40;95.70
6439;DHT22;3252;52.540;13.290;2024-02-21T01:34:49;19.40;95.70
6439;DHT22;3252;52.540;13.290;2024-02-21T01:36:51;19.40;95.70
6439;DHT22;3252;52.540;13.290;2024-02-21T01:38:53;19.40;95.70
6439;DHT22;3252;52.540;13.290;2024-02-21T01:40:56;19.40;96.00
6439;DHT22;3252;52.540;13.290;2024-02-21T01:42:58;19.40;95.80
6439;DHT22;3252;52.540;13.290;2024-02-21T01:45:00;19.40;95.80
6439;DHT22;3252;52.540;13.290;2024-02-21T01:47:02;19.40;96.10
6439;DHT22;3252;52.540;13.290;2024-02-21T01:49:04;19.40;95.80
6439;DHT22;3252;52.540;13.290;2024-02-21T01:51:06;19.40;95.80
6439;DHT22;3252;52.540;13.290;2024-02-21T01:53:08;19.40;95.80
6439;DHT22;3252;52.540;13.290;2024-02-21T01:55:11;19.40;95.80
6439;DHT22;3252;52.540;13.290;2024-02-21T01:57:15;19.40;95.80
6439;DHT22;3252;52.540;13.290;2024-02-21T01:59:19;19.40;95.90
6439;DHT22;3252;52.540;13.290;2024-02-21T02:01:21;19.40;95.90
6439;DHT22;3252;52.540;13.290;2024-02-21T02:03:23;19.40;95.80
6439;DHT22;3252;52.540;13.290;2024-02-21T02:05:26;19.40;95.80
6439;DHT22;3252;52.540;13.290;2024-02-21T02:07:28;19.30;96.10
6439;DHT22;3252;52.540;13.290;2024-02-21T02:09:30;19.30;95.80
6439;DHT22;3252;52.540;13.290;2024-02-21T02:11:32;19.40;95.90
6439;DHT22;3252;52.540;13.290;2024-02-21T02:13:36;19.40;95.90
6439;DHT22;3252;52.540;13.290;2024-02-21T02:15:38;19.30;95.80
6439;DHT22;3252;52.540;13.290;2024-02-21T02:17:40;19.30;95.80
6439;DHT22;3252;52.540;13.290;2024-02-21T02:19:42;19.40;95.90
6439;DHT22;3252;52.540;13.290;2024-02-21T02:21:47;19.40;95.90
6439;DHT22;3252;52.540;13.290;2024-02-21T02:23:55;19.40;95.80
6439;DHT22;3252;52.540;13.290;2024-02-21T02:25:56;19.40;95.90
6439;DHT22;3252;52.540;13.290;2024-02-21T02:27:59;19.40;95.90
6439;DHT22;3252;52.540;13.290;2024-02-21T02:30:01;19.40;95.90
6439;DHT22;3252;52.540;13.290;2024-02-21T02:32:04;19.30;95.90
6439;DHT22;3252;52.540;13.290;2024-02-21T02:34:05;19.30;95.90
6439;DHT22;3252;52.540;13.290;2024-02-21T02:36:07;19.30;95.90
6439;DHT22;3252;52.540;13.290;2024-02-21T02:38:09;19.30;95.90
6439;DHT22;3252;52.540;13.290;2024-02-21T02:40:14;19.30;95.90
6439;DHT22;3252;52.540;13.290;2024-02-21T02:42:16;19.30;95.90
6439;DHT22;3252;52.540;13.290;2024-02-21T02:44:18;19.30;95.90
6439;DHT22;3252;52.540;13.290;2024-02-21T02:46:20;19.30;95.90
6439;DHT22;3252;52.540;13.290;2024-02-21T02:48:22;19.30;95.90
6439;DHT22;3252;52.540;13.290;2024-02-21T02:50:24;19.30;95.90
6439;DHT22;3252;52.540;13.290;2024-02-21T02:52:26;19.30;96.20
6439;DHT22;3252;52.540;13.290;2024-02-21T02:54:28;19.30;95.90
6439;DHT22;3252;52.540;13.290;2024-02-21T02:56:31;19.40;96.00
6439;DHT22;3252;52.540;13.290;2024-02-21T02:58:33;19.30;95.90
6439;DHT22;3252;52.540;13.290;2024-02-21T03:00:35;19.30;95.90
6439;DHT22;3252;52.540;13.290;2024-02-21T03:02:39;19.30;95.90
6439;DHT22;3252;52.540;13.290;2024-02-21T03:04:41;19.30;95.90
6439;DHT22;3252;52.540;13.290;2024-02-21T03:06:43;19.30;96.00
6439;DHT22;3252;52.540;13.290;2024-02-21T03:08:45;19.30;96.00
6439;DHT22;3252;52.540;13.290;2024-02-21T03:10:47;19.30;95.90
6439;DHT22;3252;52.540;13.290;2024-02-21T03:12:51;19.30;95.90
6439;DHT22;3252;52.540;13.290;2024-02-21T03:14:53;19.30;95.90
6439;DHT22;3252;52.540;13.290;2024-02-21T03:16:56;19.30;95.90
6439;DHT22;3252;52.540;13.290;2024-02-21T03:18:58;19.30;96.00
6439;DHT22;3252;52.540;13.290;2024-02-21T03:21:00;19.30;96.00
6439;DHT22;3252;52.540;13.290;2024-02-21T03:23:02;19.30;96.00
6439;DHT22;3252;52.540;13.290;2024-02-21T03:25:04;19.30;96.00
6439;DHT22;3252;52.540;13.290;2024-02-21T03:27:08;19.30;96.00
6439;DHT22;3252;52.540;13.290;2024-02-21T03:29:11;19.30;96.00
6439;DHT22;3252;52.540;13.290;2024-02-21T03:31:13;19.30;96.00
6439;DHT22;3252;52.540;13.290;2024-02-21T03:33:15;19.30;96.00
6439;DHT22;3252;52.540;13.290;2024-02-21T03:35:16;19.30;96.00
6439;DHT22;3252;52.540;13.290;2024-02-21T03:37:18;19.30;96.00
6439;DHT22;3252;52.540;13.290;2024-02-21T03:39:20;19.30;96.00
6439;DHT22;3252;52.540;13.290;2024-02-21T03:41:22;19.30;96.00
6439;DHT22;3252;52.540;13.290;2024-02-21T03:43:24;19.30;96.10
6439;DHT22;3252;52.540;13.290;2024-02-21T03:45:27;19.30;96.00
6439;DHT22;3252;52.540;13.290;2024-02-21T03:47:30;19.30;96.00
6439;DHT22;3252;52.540;13.290;2024-02-21T03:49:31;19.30;96.00
6439;DHT22;3252;52.540;13.290;2024-02-21T03:51:33;19.30;96.10
6439;DHT22;3252;52.540;13.290;2024-02-21T03:53:36;19.30;96.10
6439;DHT22;3252;52.540;13.290;2024-02-21T03:55:38;19.30;96.10
6439;DHT22;3252;52.540;13.290;2024-02-21T03:57:40;19.30;96.10
6439;DHT22;3252;52.540;13.290;2024-02-21T03:59:42;19.20;96.00
6439;DHT22;3252;52.540;13.290;2024-02-21T04:01:44;19.30;96.10
6439;DHT22;3252;52.540;13.290;2024-02-21T04:03:46;19.20;96.00
6439;DHT22;3252;52.540;13.290;2024-02-21T04:05:48;19.20;96.00
6439;DHT22;3252;52.540;13.290;2024-02-21T04:07:51;19.30;96.10
6439;DHT22;3252;52.540;13.290;2024-02-21T04:09:53;19.30;96.10
6439;DHT22;3252;52.540;13.290;2024-02-21T04:11:55;19.30;96.10
6439;DHT22;3252;52.540;13.290;2024-02-21T04:13:57;19.30;96.10
6439;DHT22;3252;52.540;13.290;2024-02-21T04:16:00;19.40;96.10
6439;DHT22;3252;52.540;13.290;2024-02-21T04:18:04;19.50;95.90
6439;DHT22;3252;52.540;13.290;2024-02-21T04:20:05;19.60;95.80
6439;DHT22;3252;52.540;13.290;2024-02-21T04:22:09;19.80;95.60
6439;DHT22;3252;52.540;13.290;2024-02-21T04:24:10;19.90;95.50
6439;DHT22;3252;52.540;13.290;2024-02-21T04:26:12;20.00;95.30
6439;DHT22;3252;52.540;13.290;2024-02-21T04:28:14;20.00;95.10
6439;DHT22;3252;52.540;13.290;2024-02-21T04:30:16;20.10;95.30
6439;DHT22;3252;52.540;13.290;2024-02-21T04:32:19;20.20;95.00
6439;DHT22;3252;52.540;13.290;2024-02-21T04:34:22;20.20;94.90
6439;DHT22;3252;52.540;13.290;2024-02-21T04:36:24;20.30;94.90
6439;DHT22;3252;52.540;13.290;2024-02-21T04:38:27;20.30;94.80
6439;DHT22;3252;52.540;13.290;2024-02-21T04:40:29;20.40;94.70
6439;DHT22;3252;52.540;13.290;2024-02-21T04:42:31;20.40;94.70
6439;DHT22;3252;52.540;13.290;2024-02-21T04:44:33;20.50;94.60
6439;DHT22;3252;52.540;13.290;2024-02-21T04:46:35;20.50;94.60
6439;DHT22;3252;52.540;13.290;2024-02-21T04:48:38;20.50;94.60
6439;DHT22;3252;52.540;13.290;2024-02-21T04:50:41;20.50;94.60
6439;DHT22;3252;52.540;13.290;2024-02-21T04:52:43;20.50;94.60
6439;DHT22;3252;52.540;13.290;2024-02-21T04:54:45;20.50;94.60
6439;DHT22;3252;52.540;13.290;2024-02-21T04:56:47;20.50;94.50
6439;DHT22;3252;52.540;13.290;2024-02-21T04:58:49;20.60;94.50
6439;DHT22;3252;52.540;13.290;2024-02-21T05:00:52;20.70;94.40
6439;DHT22;3252;52.540;13.290;2024-02-21T05:02:55;20.80;94.20
6439;DHT22;3252;52.540;13.290;2024-02-21T05:04:57;21.00;94.00
6439;DHT22;3252;52.540;13.290;2024-02-21T05:07:01;21.10;93.90
6439;DHT22;3252;52.540;13.290;2024-02-21T05:09:03;21.10;93.70
6439;DHT22;3252;52.540;13.290;2024-02-21T05:11:05;21.20;93.70
6439;DHT22;3252;52.540;13.290;2024-02-21T05:13:07;21.20;93.60
6439;DHT22;3252;52.540;13.290;2024-02-21T05:15:10;21.20;93.60
6439;DHT22;3252;52.540;13.290;2024-02-21T05:17:12;21.20;93.60
6439;DHT22;3252;52.540;13.290;2024-02-21T05:19:14;21.20;93.60
6439;DHT22;3252;52.540;13.290;2024-02-21T05:21:16;21.30;93.60
6439;DHT22;3252;52.540;13.290;2024-02-21T05:23:19;21.30;93.40
6439;DHT22;3252;52.540;13.290;2024-02-21T05:25:20;21.40;93.30
6439;DHT22;3252;52.540;13.290;2024-02-21T05:27:22;21.50;93.20
6439;DHT22;3252;52.540;13.290;2024-02-21T05:29:24;21.60;93.00
6439;DHT22;3252;52.540;13.290;2024-02-21T05:31:43;21.70;92.90
6439;DHT22;3252;52.540;13.290;2024-02-21T05:33:56;21.90;92.80
6439;DHT22;3252;52.540;13.290;2024-02-21T05:35:58;21.80;92.70
6439;DHT22;3252;52.540;13.290;2024-02-21T05:37:59;21.80;92.70
6439;DHT22;3252;52.540;13.290;2024-02-21T05:40:03;21.80;92.70
6439;DHT22;3252;52.540;13.290;2024-02-21T05:42:05;21.80;92.80
6439;DHT22;3252;52.540;13.290;2024-02-21T05:44:07;21.80;92.90
6439;DHT22;3252;52.540;13.290;2024-02-21T05:46:09;21.80;92.90
6439;DHT22;3252;52.540;13.290;2024-02-21T05:48:11;21.80;93.00
6439;DHT22;3252;52.540;13.290;2024-02-21T05:50:14;21.80;92.90
6439;DHT22;3252;52.540;13.290;2024-02-21T05:52:16;21.90;92.90
6439;DHT22;3252;52.540;13.290;2024-02-21T05:54:18;21.90;93.20
6439;DHT22;3252;52.540;13.290;2024-02-21T05:56:21;21.90;92.90
6439;DHT22;3252;52.540;13.290;2024-02-21T05:58:23;21.90;92.90
6439;DHT22;3252;52.540;13.290;2024-02-21T06:00:25;21.80;92.90
6439;DHT22;3252;52.540;13.290;2024-02-21T06:02:27;21.80;93.00
6439;DHT22;3252;52.540;13.290;2024-02-21T06:04:29;21.80;93.10
6439;DHT22;3252;52.540;13.290;2024-02-21T06:06:32;21.70;93.10
6439;DHT22;3252;52.540;13.290;2024-02-21T06:08:34;21.70;93.20
6439;DHT22;3252;52.540;13.290;2024-02-21T06:10:36;21.70;93.30
6439;DHT22;3252;52.540;13.290;2024-02-21T06:12:40;21.60;93.30
6439;DHT22;3252;52.540;13.290;2024-02-21T06:14:41;21.60;93.40
6439;DHT22;3252;52.540;13.290;2024-02-21T06:16:43;21.60;93.50
6439;DHT22;3252;52.540;13.290;2024-02-21T06:18:46;21.50;93.50
6439;DHT22;3252;52.540;13.290;2024-02-21T06:20:48;21.50;93.60
6439;DHT22;3252;52.540;13.290;2024-02-21T06:22:50;21.50;93.70
6439;DHT22;3252;52.540;13.290;2024-02-21T06:24:52;21.40;93.70
6439;DHT22;3252;52.540;13.290;2024-02-21T06:26:55;21.40;93.80
6439;DHT22;3252;52.540;13.290;2024-02-21T06:28:58;21.40;93.90
6439;DHT22;3252;52.540;13.290;2024-02-21T06:31:02;21.40;94.00
6439;DHT22;3252;52.540;13.290;2024-02-21T06:33:05;21.30;94.00
6439;DHT22;3252;52.540;13.290;2024-02-21T06:35:08;21.30;94.00
6439;DHT22;3252;52.540;13.290;2024-02-21T06:37:10;21.20;94.10
6439;DHT22;3252;52.540;13.290;2024-02-21T06:39:12;21.20;94.20
6439;DHT22;3252;52.540;13.290;2024-02-21T06:41:17;21.20;94.30
6439;DHT22;3252;52.540;13.290;2024-02-21T06:43:20;21.20;94.40
6439;DHT22;3252;52.540;13.290;2024-02-21T06:45:24;21.30;94.50
6439;DHT22;3252;52.540;13.290;2024-02-21T06:47:26;21.40;94.40
6439;DHT22;3252;52.540;13.290;2024-02-21T06:49:28;21.50;94.40
6439;DHT22;3252;52.540;13.290;2024-02-21T06:51:30;21.60;94.30
6439;DHT22;3252;52.540;13.290;2024-02-21T06:53:32;21.70;94.20
6439;DHT22;3252;52.540;13.290;2024-02-21T06:55:35;21.80;94.10
6439;DHT22;3252;52.540;13.290;2024-02-21T06:57:37;21.90;94.00
6439;DHT22;3252;52.540;13.290;2024-02-21T06:59:39;21.90;93.90
6439;DHT22;3252;52.540;13.290;2024-02-21T07:01:46;22.00;94.00
6439;DHT22;3252;52.540;13.290;2024-02-21T07:03:48;21.90;93.90
6439;DHT22;3252;52.540;13.290;2024-02-21T07:05:50;21.90;94.00
6439;DHT22;3252;52.540;13.290;2024-02-21T07:07:52;21.90;94.00
6439;DHT22;3252;52.540;13.290;2024-02-21T07:09:54;21.90;94.10
6439;DHT22;3252;52.540;13.290;2024-02-21T07:11:56;21.80;94.10
6439;DHT22;3252;52.540;13.290;2024-02-21T07:13:58;21.80;94.20
6439;DHT22;3252;52.540;13.290;2024-02-21T07:16:01;21.80;94.40
6439;DHT22;3252;52.540;13.290;2024-02-21T07:18:04;21.70;94.70
6439;DHT22;3252;52.540;13.290;2024-02-21T07:20:07;21.70;95.00
6439;DHT22;3252;52.540;13.290;2024-02-21T07:22:10;21.70;95.20
6439;DHT22;3252;52.540;13.290;2024-02-21T07:24:12;21.70;95.30
6439;DHT22;3252;52.540;13.290;2024-02-21T07:26:14;21.70;95.30
6439;DHT22;3252;52.540;13.290;2024-02-21T07:28:15;21.70;95.30
6439;DHT22;3252;52.540;13.290;2024-02-21T07:30:17;21.70;95.40
6439;DHT22;3252;52.540;13.290;2024-02-21T07:32:20;21.70;95.40
6439;DHT22;3252;52.540;13.290;2024-02-21T07:34:23;21.70;95.50
6439;DHT22;3252;52.540;13.290;2024-02-21T07:36:28;21.70;95.70
6439;DHT22;3252;52.540;13.290;2024-02-21T07:38:31;21.70;95.80
6439;DHT22;3252;52.540;13.290;2024-02-21T07:40:33;21.70;95.90
6439;DHT22;3252;52.540;13.290;2024-02-21T07:42:35;21.60;95.90
6439;DHT22;3252;52.540;13.290;2024-02-21T07:44:37;21.60;95.90
6439;DHT22;3252;52.540;13.290;2024-02-21T07:46:38;21.60;96.00
6439;DHT22;3252;52.540;13.290;2024-02-21T07:48:40;21.60;96.10
6439;DHT22;3252;52.540;13.290;2024-02-21T07:50:43;21.60;96.10
6439;DHT22;3252;52.540;13.290;2024-02-21T07:52:45;21.60;96.20
6439;DHT22;3252;52.540;13.290;2024-02-21T07:54:47;21.60;96.30
6439;DHT22;3252;52.540;13.290;2024-02-21T07:56:48;21.60;96.20
6439;DHT22;3252;52.540;13.290;2024-02-21T07:58:50;21.60;96.20
6439;DHT22;3252;52.540;13.290;2024-02-21T08:00:52;21.60;96.30
6439;DHT22;3252;52.540;13.290;2024-02-21T08:02:54;21.60;96.20
6439;DHT22;3252;52.540;13.290;2024-02-21T08:04:56;21.60;96.20
6439;DHT22;3252;52.540;13.290;2024-02-21T08:07:01;21.60;96.20
6439;DHT22;3252;52.540;13.290;2024-02-21T08:09:04;21.60;96.20
6439;DHT22;3252;52.540;13.290;2024-02-21T08:11:06;21.60;96.30
6439;DHT22;3252;52.540;13.290;2024-02-21T08:13:09;21.50;96.30
6439;DHT22;3252;52.540;13.290;2024-02-21T08:15:11;21.50;96.30
6439;DHT22;3252;52.540;13.290;2024-02-21T08:17:13;21.50;96.30
6439;DHT22;3252;52.540;13.290;2024-02-21T08:19:15;21.50;96.30
6439;DHT22;3252;52.540;13.290;2024-02-21T08:21:17;21.50;96.30
6439;DHT22;3252;52.540;13.290;2024-02-21T08:23:23;21.50;96.20
6439;DHT22;3252;52.540;13.290;2024-02-21T08:25:26;21.50;96.30
6439;DHT22;3252;52.540;13.290;2024-02-21T08:27:27;21.50;96.30
6439;DHT22;3252;52.540;13.290;2024-02-21T08:32:53;21.50;96.10
6439;DHT22;3252;52.540;13.290;2024-02-21T08:34:56;21.50;95.70
6439;DHT22;3252;52.540;13.290;2024-02-21T08:36:58;21.40;95.90
6439;DHT22;3252;52.540;13.290;2024-02-21T08:39:01;21.40;96.00
6439;DHT22;3252;52.540;13.290;2024-02-21T08:41:07;21.40;96.00
6439;DHT22;3252;52.540;13.290;2024-02-21T08:43:09;21.40;95.90
6439;DHT22;3252;52.540;13.290;2024-02-21T08:46:00;21.40;95.90
6439;DHT22;3252;52.540;13.290;2024-02-21T08:48:07;21.40;95.90
6439;DHT22;3252;52.540;13.290;2024-02-21T08:50:10;21.40;96.00
6439;DHT22;3252;52.540;13.290;2024-02-21T08:52:37;21.40;95.90
6439;DHT22;3252;52.540;13.290;2024-02-21T08:54:43;21.40;95.90
6439;DHT22;3252;52.540;13.290;2024-02-21T08:56:46;21.40;95.80
6439;DHT22;3252;52.540;13.290;2024-02-21T08:58:49;21.50;95.80
6439;DHT22;3252;52.540;13.290;2024-02-21T09:00:51;21.50;95.80
6439;DHT22;3252;52.540;13.290;2024-02-21T09:02:54;21.50;95.80
6439;DHT22;3252;52.540;13.290;2024-02-21T09:04:58;21.50;95.90
6439;DHT22;3252;52.540;13.290;2024-02-21T09:07:06;21.50;95.80
6439;DHT22;3252;52.540;13.290;2024-02-21T09:09:09;21.50;95.70
6439;DHT22;3252;52.540;13.290;2024-02-21T09:11:14;21.50;95.80
6439;DHT22;3252;52.540;13.290;2024-02-21T09:13:17;21.50;95.80
6439;DHT22;3252;52.540;13.290;2024-02-21T09:15:21;21.50;95.80
6439;DHT22;3252;52.540;13.290;2024-02-21T09:17:25;21.60;95.80
6439;DHT22;3252;52.540;13.290;2024-02-21T09:19:27;21.60;95.80
6439;DHT22;3252;52.540;13.290;2024-02-21T09:21:31;21.60;95.60
6439;DHT22;3252;52.540;13.290;2024-02-21T09:23:34;21.60;95.60
6439;DHT22;3252;52.540;13.290;2024-02-21T09:25:37;21.70;95.60
6439;DHT22;3252;52.540;13.290;2024-02-21T09:27:44;21.70;95.50
6439;DHT22;3252;52.540;13.290;2024-02-21T09:29:46;21.70;95.50
6439;DHT22;3252;52.540;13.290;2024-02-21T09:31:50;21.70;95.50
6439;DHT22;3252;52.540;13.290;2024-02-21T09:33:53;21.70;95.50
6439;DHT22;3252;52.540;13.290;2024-02-21T09:35:56;21.70;95.40
6439;DHT22;3252;52.540;13.290;2024-02-21T09:37:59;21.70;95.40
6439;DHT22;3252;52.540;13.290;2024-02-21T09:40:04;21.70;95.40
6439;DHT22;3252;52.540;13.290;2024-02-21T09:42:07;21.70;95.40
6439;DHT22;3252;52.540;13.290;2024-02-21T09:44:14;21.80;95.50
6439;DHT22;3252;52.540;13.290;2024-02-21T09:46:16;21.80;95.40
6439;DHT22;3252;52.540;13.290;2024-02-21T09:48:29;21.80;95.40
6439;DHT22;3252;52.540;13.290;2024-02-21T09:50:34;21.80;95.30
6439;DHT22;3252;52.540;13.290;2024-02-21T09:52:36;21.80;95.30
6439;DHT22;3252;52.540;13.290;2024-02-21T09:54:39;21.90;95.30
6439;DHT22;3252;52.540;13.290;2024-02-21T09:56:45;21.90;95.30
6439;DHT22;3252;52.540;13.290;2024-02-21T09:58:48;21.90;95.30
6439;DHT22;3252;52.540;13.290;2024-02-21T10:00:51;21.90;95.20
6439;DHT22;3252;52.540;13.290;2024-02-21T10:02:53;21.90;95.20
6439;DHT22;3252;52.540;13.290;2024-02-21T10:04:56;21.90;95.20
6439;DHT22;3252;52.540;13.290;2024-02-21T10:06:59;22.00;95.20
6439;DHT22;3252;52.540;13.290;2024-02-21T10:09:04;22.00;95.20
6439;DHT22;3252;52.540;13.290;2024-02-21T10:11:06;22.00;95.10
6439;DHT22;3252;52.540;13.290;2024-02-21T10:13:10;22.10;95.00
6439;DHT22;3252;52.540;13.290;2024-02-21T10:15:12;22.20;95.00
6439;DHT22;3252;52.540;13.290;2024-02-21T10:17:17;22.10;94.90
6439;DHT22;3252;52.540;13.290;2024-02-21T10:19:21;22.10;95.00
6439;DHT22;3252;52.540;13.290;2024-02-21T10:21:23;22.10;95.00
6439;DHT22;3252;52.540;13.290;2024-02-21T10:23:25;22.10;94.90
6439;DHT22;3252;52.540;13.290;2024-02-21T10:25:26;22.10;94.90
6439;DHT22;3252;52.540;13.290;2024-02-21T10:27:28;22.00;94.90
6439;DHT22;3252;52.540;13.290;2024-02-21T10:29:31;22.00;94.90
6439;DHT22;3252;52.540;13.290;2024-02-21T10:31:32;22.00;95.10
6439;DHT22;3252;52.540;13.290;2024-02-21T10:33:36;22.00;95.10
6439;DHT22;3252;52.540;13.290;2024-02-21T10:35:38;22.00;95.10
6439;DHT22;3252;52.540;13.290;2024-02-21T10:37:40;22.10;95.00
6439;DHT22;3252;52.540;13.290;2024-02-21T10:39:42;22.10;95.10
6439;DHT22;3252;52.540;13.290;2024-02-21T10:41:45;22.10;95.00
6439;DHT22;3252;52.540;13.290;2024-02-21T10:43:49;22.10;95.00
6439;DHT22;3252;52.540;13.290;2024-02-21T10:45:53;22.10;95.00
6439;DHT22;3252;52.540;13.290;2024-02-21T10:47:56;22.10;94.90
6439;DHT22;3252;52.540;13.290;2024-02-21T10:50:08;22.10;94.90
6439;DHT22;3252;52.540;13.290;2024-02-21T10:52:14;22.10;94.80
6439;DHT22;3252;52.540;13.290;2024-02-21T10:54:34;22.10;94.90
6439;DHT22;3252;52.540;13.290;2024-02-21T10:56:39;22.10;94.80
6439;DHT22;3252;52.540;13.290;2024-02-21T10:58:43;22.20;94.70
6439;DHT22;3252;52.540;13.290;2024-02-21T11:00:45;22.20;94.70
6439;DHT22;3252;52.540;13.290;2024-02-21T11:02:47;22.20;94.60
6439;DHT22;3252;52.540;13.290;2024-02-21T11:04:50;22.30;94.70
6439;DHT22;3252;52.540;13.290;2024-02-21T11:06:55;22.30;94.70
6439;DHT22;3252;52.540;13.290;2024-02-21T11:09:02;22.30;94.70
6439;DHT22;3252;52.540;13.290;2024-02-21T11:11:05;22.30;94.80
6439;DHT22;3252;52.540;13.290;2024-02-21T11:13:07;22.30;94.70
6439;DHT22;3252;52.540;13.290;2024-02-21T11:15:11;22.30;94.50
6439;DHT22;3252;52.540;13.290;2024-02-21T11:17:17;22.30;94.50
6439;DHT22;3252;52.540;13.290;2024-02-21T11:19:20;22.30;94.50
6439;DHT22;3252;52.540;13.290;2024-02-21T11:21:33;22.30;94.50
6439;DHT22;3252;52.540;13.290;2024-02-21T11:23:37;22.30;94.50
6439;DHT22;3252;52.540;13.290;2024-02-21T11:25:44;22.30;94.50
6439;DHT22;3252;52.540;13.290;2024-02-21T11:27:45;22.30;94.50
6439;DHT22;3252;52.540;13.290;2024-02-21T11:29:49;22.30;94.40
6439;DHT22;3252;52.540;13.290;2024-02-21T11:31:52;22.40;94.40
6439;DHT22;3252;52.540;13.290;2024-02-21T11:33:55;22.40;94.40
6439;DHT22;3252;52.540;13.290;2024-02-21T11:35:59;22.40;94.30
6439;DHT22;3252;52.540;13.290;2024-02-21T11:38:09;22.50;94.30
6439;DHT22;3252;52.540;13.290;2024-02-21T11:40:17;22.50;94.20
6439;DHT22;3252;52.540;13.290;2024-02-21T11:42:19;22.60;94.20
6439;DHT22;3252;52.540;13.290;2024-02-21T11:44:21;22.60;94.10
6439;DHT22;3252;52.540;13.290;2024-02-21T11:46:23;22.60;94.10
6439;DHT22;3252;52.540;13.290;2024-02-21T11:48:26;22.60;94.10
6439;DHT22;3252;52.540;13.290;2024-02-21T11:50:29;22.60;94.10
6439;DHT22;3252;52.540;13.290;2024-02-21T11:52:30;22.60;94.10
6439;DHT22;3252;52.540;13.290;2024-02-21T11:54:32;22.60;94.20
6439;DHT22;3252;52.540;13.290;2024-02-21T11:56:36;22.60;94.60
6439;DHT22;3252;52.540;13.290;2024-02-21T11:58:38;22.60;94.30
6439;DHT22;3252;52.540;13.290;2024-02-21T12:00:41;22.60;94.30
6439;DHT22;3252;52.540;13.290;2024-02-21T12:03:32;22.60;94.30
6439;DHT22;3252;52.540;13.290;2024-02-21T12:05:36;22.60;94.30
6439;DHT22;3252;52.540;13.290;2024-02-21T12:07:39;22.60;94.30
6439;DHT22;3252;52.540;13.290;2024-02-21T12:09:42;22.60;94.30
6439;DHT22;3252;52.540;13.290;2024-02-21T12:11:45;22.50;94.30
6439;DHT22;3252;52.540;13.290;2024-02-21T12:13:57;22.60;94.40
6439;DHT22;3252;52.540;13.290;2024-02-21T12:15:59;22.60;94.40
6439;DHT22;3252;52.540;13.290;2024-02-21T12:18:04;22.60;94.40
6439;DHT22;3252;52.540;13.290;2024-02-21T12:20:07;22.60;94.30
6439;DHT22;3252;52.540;13.290;2024-02-21T12:22:16;22.60;94.30
6439;DHT22;3252;52.540;13.290;2024-02-21T12:24:22;22.60;94.20
6439;DHT22;3252;52.540;13.290;2024-02-21T12:26:25;22.70;94.30
6439;DHT22;3252;52.540;13.290;2024-02-21T12:28:28;22.70;94.30
6439;DHT22;3252;52.540;13.290;2024-02-21T12:30:31;22.70;94.20
6439;DHT22;3252;52.540;13.290;2024-02-21T12:32:34;22.70;94.20
6439;DHT22;3252;52.540;13.290;2024-02-21T12:34:36;22.70;94.20
6439;DHT22;3252;52.540;13.290;2024-02-21T12:36:42;22.70;94.20
6439;DHT22;3252;52.540;13.290;2024-02-21T12:38:43;22.70;94.10
6439;DHT22;3252;52.540;13.290;2024-02-21T12:40:47;22.70;94.20
6439;DHT22;3252;52.540;13.290;2024-02-21T12:42:49;22.80;94.20
6439;DHT22;3252;52.540;13.290;2024-02-21T12:44:54;22.80;94.20
6439;DHT22;3252;52.540;13.290;2024-02-21T12:46:56;22.80;94.20
6439;DHT22;3252;52.540;13.290;2024-02-21T12:48:59;22.80;94.20
6439;DHT22;3252;52.540;13.290;2024-02-21T12:51:00;22.80;94.20
6439;DHT22;3252;52.540;13.290;2024-02-21T12:53:03;22.80;94.20
6439;DHT22;3252;52.540;13.290;2024-02-21T12:55:05;22.80;94.20
6439;DHT22;3252;52.540;13.290;2024-02-21T12:57:08;22.80;94.10
6439;DHT22;3252;52.540;13.290;2024-02-21T12:59:10;22.80;94.10
6439;DHT22;3252;52.540;13.290;2024-02-21T13:01:13;22.80;94.10
6439;DHT22;3252;52.540;13.290;2024-02-21T13:03:15;22.80;94.10
6439;DHT22;3252;52.540;13.290;2024-02-21T13:05:17;22.80;94.10
6439;DHT22;3252;52.540;13.290;2024-02-21T13:07:19;22.80;94.00
6439;DHT22;3252;52.540;13.290;2024-02-21T13:09:21;22.80;94.10
6439;DHT22;3252;52.540;13.290;2024-02-21T13:11:23;22.80;94.10
6439;DHT22;3252;52.540;13.290;2024-02-21T13:13:27;22.80;94.10